sensor_id;sensor_type;location;lat;lon;timestamp;P1;durP1;ratioP1;P2;durP2;ratioP2
71947;SDS011;63257;55.082;38.772;2023-06-14T00:01:06;12.43;;;5.53;;
71947;SDS011;63257;55.082;38.772;2023-06-14T00:03:33;15.77;;;5.72;;
71947;SDS011;63257;55.082;38.772;2023-06-14T00:05:59;11.90;;;5.43;;
71947;SDS011;63257;55.082;38.772;2023-06-14T00:08:24;11.43;;;4.78;;
71947;SDS011;63257;55.082;38.772;2023-06-14T00:10:51;12.57;;;5.40;;
71947;SDS011;63257;55.082;38.772;2023-06-14T00:13:17;13.75;;;5.53;;
71947;SDS011;63257;55.082;38.772;2023-06-14T00:15:43;11.00;;;5.30;;
71947;SDS011;63257;55.082;38.772;2023-06-14T00:18:10;11.70;;;5.05;;
71947;SDS011;63257;55.082;38.772;2023-06-14T00:20:37;11.23;;;5.03;;
71947;SDS011;63257;55.082;38.772;2023-06-14T00:23:03;10.07;;;5.07;;
71947;SDS011;63257;55.082;38.772;2023-06-14T00:25:29;12.90;;;5.43;;
71947;SDS011;63257;55.082;38.772;2023-06-14T00:27:55;12.17;;;5.37;;
71947;SDS011;63257;55.082;38.772;2023-06-14T00:30:22;13.15;;;5.43;;
71947;SDS011;63257;55.082;38.772;2023-06-14T00:32:48;11.32;;;5.43;;
71947;SDS011;63257;55.082;38.772;2023-06-14T00:35:17;10.23;;;4.70;;
71947;SDS011;63257;55.082;38.772;2023-06-14T00:37:43;11.53;;;4.80;;
71947;SDS011;63257;55.082;38.772;2023-06-14T00:40:09;10.75;;;5.10;;
71947;SDS011;63257;55.082;38.772;2023-06-14T00:42:35;10.60;;;4.75;;
71947;SDS011;63257;55.082;38.772;2023-06-14T00:45:01;10.80;;;4.63;;
71947;SDS011;63257;55.082;38.772;2023-06-14T00:47:32;8.90;;;4.03;;
71947;SDS011;63257;55.082;38.772;2023-06-14T00:49:57;12.93;;;4.28;;
71947;SDS011;63257;55.082;38.772;2023-06-14T00:52:25;10.97;;;4.23;;
71947;SDS011;63257;55.082;38.772;2023-06-14T00:54:52;9.80;;;4.53;;
71947;SDS011;63257;55.082;38.772;2023-06-14T00:57:18;11.65;;;4.90;;
71947;SDS011;63257;55.082;38.772;2023-06-14T00:59:47;12.25;;;4.45;;
71947;SDS011;63257;55.082;38.772;2023-06-14T01:02:14;12.55;;;4.82;;
71947;SDS011;63257;55.082;38.772;2023-06-14T01:04:40;11.40;;;4.60;;
71947;SDS011;63257;55.082;38.772;2023-06-14T01:13:12;13.05;;;4.70;;
71947;SDS011;63257;55.082;38.772;2023-06-14T01:15:45;15.93;;;5.18;;
71947;SDS011;63257;55.082;38.772;2023-06-14T01:18:13;26.10;;;6.67;;
71947;SDS011;63257;55.082;38.772;2023-06-14T01:20:46;17.85;;;5.13;;
71947;SDS011;63257;55.082;38.772;2023-06-14T01:23:16;16.63;;;5.10;;
71947;SDS011;63257;55.082;38.772;2023-06-14T01:25:42;18.75;;;4.72;;
71947;SDS011;63257;55.082;38.772;2023-06-14T01:28:11;14.50;;;5.15;;
71947;SDS011;63257;55.082;38.772;2023-06-14T01:30:40;18.40;;;5.38;;
71947;SDS011;63257;55.082;38.772;2023-06-14T01:33:14;12.98;;;5.43;;
71947;SDS011;63257;55.082;38.772;2023-06-14T01:35:47;14.23;;;5.82;;
71947;SDS011;63257;55.082;38.772;2023-06-14T01:38:20;13.65;;;4.57;;
71947;SDS011;63257;55.082;38.772;2023-06-14T01:40:49;14.63;;;5.20;;
71947;SDS011;63257;55.082;38.772;2023-06-14T01:43:17;16.60;;;4.63;;
71947;SDS011;63257;55.082;38.772;2023-06-14T01:45:44;17.45;;;5.40;;
71947;SDS011;63257;55.082;38.772;2023-06-14T01:48:12;17.75;;;5.82;;
71947;SDS011;63257;55.082;38.772;2023-06-14T01:50:39;16.77;;;5.43;;
71947;SDS011;63257;55.082;38.772;2023-06-14T01:53:09;19.17;;;5.57;;
71947;SDS011;63257;55.082;38.772;2023-06-14T01:55:37;18.20;;;5.40;;
71947;SDS011;63257;55.082;38.772;2023-06-14T01:58:06;12.23;;;5.20;;
71947;SDS011;63257;55.082;38.772;2023-06-14T02:00:32;15.43;;;5.97;;
71947;SDS011;63257;55.082;38.772;2023-06-14T02:02:58;16.43;;;5.40;;
71947;SDS011;63257;55.082;38.772;2023-06-14T02:05:26;12.05;;;5.20;;
71947;SDS011;63257;55.082;38.772;2023-06-14T02:07:54;15.05;;;5.20;;
71947;SDS011;63257;55.082;38.772;2023-06-14T02:10:20;12.13;;;5.20;;
71947;SDS011;63257;55.082;38.772;2023-06-14T02:12:48;16.52;;;4.47;;
71947;SDS011;63257;55.082;38.772;2023-06-14T02:15:14;13.55;;;5.10;;
71947;SDS011;63257;55.082;38.772;2023-06-14T02:17:45;11.57;;;5.03;;
71947;SDS011;63257;55.082;38.772;2023-06-14T02:20:19;15.20;;;4.97;;
71947;SDS011;63257;55.082;38.772;2023-06-14T02:22:45;13.33;;;5.10;;
71947;SDS011;63257;55.082;38.772;2023-06-14T02:25:11;13.20;;;5.20;;
71947;SDS011;63257;55.082;38.772;2023-06-14T02:27:40;13.95;;;5.28;;
71947;SDS011;63257;55.082;38.772;2023-06-14T02:30:06;12.60;;;4.83;;
71947;SDS011;63257;55.082;38.772;2023-06-14T02:32:34;16.83;;;5.53;;
71947;SDS011;63257;55.082;38.772;2023-06-14T02:35:01;16.52;;;5.82;;
71947;SDS011;63257;55.082;38.772;2023-06-14T02:37:32;9.60;;;4.78;;
71947;SDS011;63257;55.082;38.772;2023-06-14T02:39:58;12.73;;;4.78;;
71947;SDS011;63257;55.082;38.772;2023-06-14T02:42:24;11.93;;;5.20;;
71947;SDS011;63257;55.082;38.772;2023-06-14T02:44:50;13.82;;;5.55;;
71947;SDS011;63257;55.082;38.772;2023-06-14T02:47:17;17.15;;;6.07;;
71947;SDS011;63257;55.082;38.772;2023-06-14T02:49:43;15.83;;;5.57;;
71947;SDS011;63257;55.082;38.772;2023-06-14T02:52:14;13.07;;;5.03;;
71947;SDS011;63257;55.082;38.772;2023-06-14T02:54:40;12.05;;;5.05;;
71947;SDS011;63257;55.082;38.772;2023-06-14T02:57:08;16.65;;;5.10;;
71947;SDS011;63257;55.082;38.772;2023-06-14T02:59:36;11.93;;;5.10;;
71947;SDS011;63257;55.082;38.772;2023-06-14T03:02:03;12.90;;;4.80;;
71947;SDS011;63257;55.082;38.772;2023-06-14T03:04:31;13.88;;;4.93;;
71947;SDS011;63257;55.082;38.772;2023-06-14T03:07:06;11.35;;;4.80;;
71947;SDS011;63257;55.082;38.772;2023-06-14T03:09:36;10.57;;;4.65;;
71947;SDS011;63257;55.082;38.772;2023-06-14T03:12:03;11.55;;;4.82;;
71947;SDS011;63257;55.082;38.772;2023-06-14T03:14:31;12.57;;;4.37;;
71947;SDS011;63257;55.082;38.772;2023-06-14T03:16:57;9.88;;;4.40;;
71947;SDS011;63257;55.082;38.772;2023-06-14T03:19:24;9.52;;;4.80;;
71947;SDS011;63257;55.082;38.772;2023-06-14T03:21:53;12.48;;;4.97;;
71947;SDS011;63257;55.082;38.772;2023-06-14T03:24:24;13.75;;;5.03;;
71947;SDS011;63257;55.082;38.772;2023-06-14T03:26:53;10.97;;;5.60;;
71947;SDS011;63257;55.082;38.772;2023-06-14T03:29:19;13.85;;;6.43;;
71947;SDS011;63257;55.082;38.772;2023-06-14T03:32:02;19.80;;;9.57;;
71947;SDS011;63257;55.082;38.772;2023-06-14T03:34:40;18.92;;;9.15;;
71947;SDS011;63257;55.082;38.772;2023-06-14T03:37:10;19.58;;;8.93;;
71947;SDS011;63257;55.082;38.772;2023-06-14T03:39:36;16.47;;;8.30;;
71947;SDS011;63257;55.082;38.772;2023-06-14T03:42:02;21.88;;;9.20;;
71947;SDS011;63257;55.082;38.772;2023-06-14T03:44:29;20.92;;;7.55;;
71947;SDS011;63257;55.082;38.772;2023-06-14T03:46:55;21.73;;;9.27;;
71947;SDS011;63257;55.082;38.772;2023-06-14T03:49:22;20.40;;;9.17;;
71947;SDS011;63257;55.082;38.772;2023-06-14T03:51:48;20.88;;;9.38;;
71947;SDS011;63257;55.082;38.772;2023-06-14T03:54:18;21.67;;;10.38;;
71947;SDS011;63257;55.082;38.772;2023-06-14T03:56:45;22.63;;;10.43;;
71947;SDS011;63257;55.082;38.772;2023-06-14T03:59:11;19.30;;;9.32;;
71947;SDS011;63257;55.082;38.772;2023-06-14T04:01:37;17.43;;;8.70;;
71947;SDS011;63257;55.082;38.772;2023-06-14T04:04:13;17.05;;;7.97;;
71947;SDS011;63257;55.082;38.772;2023-06-14T04:07:20;15.65;;;7.60;;
71947;SDS011;63257;55.082;38.772;2023-06-14T04:11:24;14.73;;;6.25;;
71947;SDS011;63257;55.082;38.772;2023-06-14T04:13:52;9.82;;;4.65;;
71947;SDS011;63257;55.082;38.772;2023-06-14T04:16:20;10.10;;;4.30;;
71947;SDS011;63257;55.082;38.772;2023-06-14T04:18:46;9.18;;;4.22;;
71947;SDS011;63257;55.082;38.772;2023-06-14T04:21:14;8.63;;;3.85;;
71947;SDS011;63257;55.082;38.772;2023-06-14T04:23:40;11.10;;;4.07;;
71947;SDS011;63257;55.082;38.772;2023-06-14T04:26:09;10.10;;;3.95;;
71947;SDS011;63257;55.082;38.772;2023-06-14T04:28:36;7.33;;;4.27;;
71947;SDS011;63257;55.082;38.772;2023-06-14T04:31:07;10.52;;;4.35;;
71947;SDS011;63257;55.082;38.772;2023-06-14T04:33:37;11.15;;;4.25;;
71947;SDS011;63257;55.082;38.772;2023-06-14T04:36:14;10.55;;;4.72;;
71947;SDS011;63257;55.082;38.772;2023-06-14T04:38:43;9.73;;;4.50;;
71947;SDS011;63257;55.082;38.772;2023-06-14T04:41:11;11.43;;;4.50;;
71947;SDS011;63257;55.082;38.772;2023-06-14T04:43:37;11.68;;;4.63;;
71947;SDS011;63257;55.082;38.772;2023-06-14T04:46:05;9.68;;;4.53;;
71947;SDS011;63257;55.082;38.772;2023-06-14T04:48:39;8.30;;;4.43;;
71947;SDS011;63257;55.082;38.772;2023-06-14T04:51:09;9.85;;;4.35;;
71947;SDS011;63257;55.082;38.772;2023-06-14T04:53:35;8.13;;;4.00;;
71947;SDS011;63257;55.082;38.772;2023-06-14T04:56:03;7.43;;;3.90;;
71947;SDS011;63257;55.082;38.772;2023-06-14T04:58:30;10.10;;;4.43;;
71947;SDS011;63257;55.082;38.772;2023-06-14T05:00:57;7.38;;;4.10;;
71947;SDS011;63257;55.082;38.772;2023-06-14T05:03:25;8.15;;;4.80;;
71947;SDS011;63257;55.082;38.772;2023-06-14T05:05:52;10.33;;;4.60;;
71947;SDS011;63257;55.082;38.772;2023-06-14T05:08:19;8.35;;;4.93;;
71947;SDS011;63257;55.082;38.772;2023-06-14T05:10:48;9.70;;;5.13;;
71947;SDS011;63257;55.082;38.772;2023-06-14T05:13:14;6.63;;;4.38;;
71947;SDS011;63257;55.082;38.772;2023-06-14T05:15:40;8.93;;;4.77;;
71947;SDS011;63257;55.082;38.772;2023-06-14T05:18:06;7.75;;;4.72;;
71947;SDS011;63257;55.082;38.772;2023-06-14T05:20:35;12.05;;;4.78;;
71947;SDS011;63257;55.082;38.772;2023-06-14T05:23:02;12.45;;;4.97;;
71947;SDS011;63257;55.082;38.772;2023-06-14T05:25:28;11.43;;;4.60;;
71947;SDS011;63257;55.082;38.772;2023-06-14T05:27:54;9.27;;;4.47;;
71947;SDS011;63257;55.082;38.772;2023-06-14T05:30:20;7.20;;;3.88;;
71947;SDS011;63257;55.082;38.772;2023-06-14T05:32:46;8.57;;;3.93;;
71947;SDS011;63257;55.082;38.772;2023-06-14T05:35:12;7.55;;;3.67;;
71947;SDS011;63257;55.082;38.772;2023-06-14T05:37:38;8.00;;;4.05;;
71947;SDS011;63257;55.082;38.772;2023-06-14T05:40:04;7.45;;;3.50;;
71947;SDS011;63257;55.082;38.772;2023-06-14T05:42:31;9.87;;;3.90;;
71947;SDS011;63257;55.082;38.772;2023-06-14T05:44:58;6.57;;;3.40;;
71947;SDS011;63257;55.082;38.772;2023-06-14T05:47:24;8.10;;;3.80;;
71947;SDS011;63257;55.082;38.772;2023-06-14T05:49:54;8.38;;;3.63;;
71947;SDS011;63257;55.082;38.772;2023-06-14T05:52:20;7.30;;;3.60;;
71947;SDS011;63257;55.082;38.772;2023-06-14T05:54:46;8.33;;;4.00;;
71947;SDS011;63257;55.082;38.772;2023-06-14T05:57:12;7.65;;;3.83;;
71947;SDS011;63257;55.082;38.772;2023-06-14T05:59:38;8.10;;;3.80;;
71947;SDS011;63257;55.082;38.772;2023-06-14T06:02:04;7.18;;;3.90;;
71947;SDS011;63257;55.082;38.772;2023-06-14T06:04:30;10.63;;;3.80;;
71947;SDS011;63257;55.082;38.772;2023-06-14T06:06:56;6.50;;;3.00;;
71947;SDS011;63257;55.082;38.772;2023-06-14T06:09:22;6.95;;;3.30;;
71947;SDS011;63257;55.082;38.772;2023-06-14T06:11:48;6.03;;;3.30;;
71947;SDS011;63257;55.082;38.772;2023-06-14T06:14:14;7.00;;;3.07;;
71947;SDS011;63257;55.082;38.772;2023-06-14T06:16:40;8.65;;;4.00;;
71947;SDS011;63257;55.082;38.772;2023-06-14T06:19:05;9.17;;;3.40;;
71947;SDS011;63257;55.082;38.772;2023-06-14T06:21:32;9.25;;;3.03;;
71947;SDS011;63257;55.082;38.772;2023-06-14T06:24:02;6.47;;;2.90;;
71947;SDS011;63257;55.082;38.772;2023-06-14T06:26:30;8.40;;;3.50;;
71947;SDS011;63257;55.082;38.772;2023-06-14T06:29:00;9.10;;;3.30;;
71947;SDS011;63257;55.082;38.772;2023-06-14T06:31:27;6.80;;;2.90;;
71947;SDS011;63257;55.082;38.772;2023-06-14T06:33:53;5.90;;;2.88;;
71947;SDS011;63257;55.082;38.772;2023-06-14T06:36:20;7.85;;;3.00;;
71947;SDS011;63257;55.082;38.772;2023-06-14T06:38:47;8.13;;;2.90;;
71947;SDS011;63257;55.082;38.772;2023-06-14T06:41:13;11.47;;;3.10;;
71947;SDS011;63257;55.082;38.772;2023-06-14T06:43:39;9.38;;;2.90;;
71947;SDS011;63257;55.082;38.772;2023-06-14T06:46:06;5.32;;;2.70;;
71947;SDS011;63257;55.082;38.772;2023-06-14T06:48:32;10.02;;;3.17;;
71947;SDS011;63257;55.082;38.772;2023-06-14T06:50:58;7.33;;;2.97;;
71947;SDS011;63257;55.082;38.772;2023-06-14T06:53:23;10.73;;;3.10;;
71947;SDS011;63257;55.082;38.772;2023-06-14T06:55:49;5.93;;;3.13;;
71947;SDS011;63257;55.082;38.772;2023-06-14T06:58:15;7.60;;;2.70;;
71947;SDS011;63257;55.082;38.772;2023-06-14T07:00:41;6.85;;;2.67;;
71947;SDS011;63257;55.082;38.772;2023-06-14T07:03:07;6.70;;;2.67;;
71947;SDS011;63257;55.082;38.772;2023-06-14T07:05:33;5.75;;;2.90;;
71947;SDS011;63257;55.082;38.772;2023-06-14T07:07:59;7.50;;;2.97;;
71947;SDS011;63257;55.082;38.772;2023-06-14T07:10:25;7.22;;;3.05;;
71947;SDS011;63257;55.082;38.772;2023-06-14T07:12:51;6.47;;;3.00;;
71947;SDS011;63257;55.082;38.772;2023-06-14T07:15:17;8.65;;;3.25;;
71947;SDS011;63257;55.082;38.772;2023-06-14T07:17:43;5.95;;;3.20;;
71947;SDS011;63257;55.082;38.772;2023-06-14T07:20:09;5.47;;;3.33;;
71947;SDS011;63257;55.082;38.772;2023-06-14T07:22:39;12.25;;;3.55;;
71947;SDS011;63257;55.082;38.772;2023-06-14T07:25:09;8.20;;;3.40;;
71947;SDS011;63257;55.082;38.772;2023-06-14T07:27:42;6.50;;;3.05;;
71947;SDS011;63257;55.082;38.772;2023-06-14T07:30:09;6.07;;;2.93;;
71947;SDS011;63257;55.082;38.772;2023-06-14T07:32:36;10.95;;;3.38;;
71947;SDS011;63257;55.082;38.772;2023-06-14T07:35:02;7.72;;;3.22;;
71947;SDS011;63257;55.082;38.772;2023-06-14T07:37:30;6.03;;;3.10;;
71947;SDS011;63257;55.082;38.772;2023-06-14T07:39:56;5.93;;;3.20;;
71947;SDS011;63257;55.082;38.772;2023-06-14T07:42:22;9.00;;;3.27;;
71947;SDS011;63257;55.082;38.772;2023-06-14T07:44:48;7.72;;;2.95;;
71947;SDS011;63257;55.082;38.772;2023-06-14T07:47:16;9.80;;;3.45;;
71947;SDS011;63257;55.082;38.772;2023-06-14T07:49:42;5.78;;;3.13;;
71947;SDS011;63257;55.082;38.772;2023-06-14T07:52:09;7.97;;;3.45;;
71947;SDS011;63257;55.082;38.772;2023-06-14T07:54:35;6.50;;;3.10;;
71947;SDS011;63257;55.082;38.772;2023-06-14T07:57:10;9.50;;;3.38;;
71947;SDS011;63257;55.082;38.772;2023-06-14T07:59:36;9.68;;;3.40;;
71947;SDS011;63257;55.082;38.772;2023-06-14T08:02:02;6.45;;;3.03;;
71947;SDS011;63257;55.082;38.772;2023-06-14T08:04:27;6.83;;;2.90;;
71947;SDS011;63257;55.082;38.772;2023-06-14T08:06:53;7.15;;;3.40;;
71947;SDS011;63257;55.082;38.772;2023-06-14T08:09:19;7.33;;;3.60;;
71947;SDS011;63257;55.082;38.772;2023-06-14T08:11:45;8.43;;;3.28;;
71947;SDS011;63257;55.082;38.772;2023-06-14T08:14:17;6.55;;;3.13;;
71947;SDS011;63257;55.082;38.772;2023-06-14T08:16:43;5.82;;;2.85;;
71947;SDS011;63257;55.082;38.772;2023-06-14T08:19:09;6.47;;;3.42;;
71947;SDS011;63257;55.082;38.772;2023-06-14T08:21:34;6.35;;;3.42;;
71947;SDS011;63257;55.082;38.772;2023-06-14T08:24:01;5.50;;;3.40;;
71947;SDS011;63257;55.082;38.772;2023-06-14T08:26:33;7.30;;;3.50;;
71947;SDS011;63257;55.082;38.772;2023-06-14T08:28:59;7.78;;;3.45;;
71947;SDS011;63257;55.082;38.772;2023-06-14T08:31:25;6.67;;;3.63;;
71947;SDS011;63257;55.082;38.772;2023-06-14T08:33:52;6.70;;;3.20;;
71947;SDS011;63257;55.082;38.772;2023-06-14T08:36:18;5.22;;;3.05;;
71947;SDS011;63257;55.082;38.772;2023-06-14T08:38:44;5.63;;;3.33;;
71947;SDS011;63257;55.082;38.772;2023-06-14T08:41:11;6.60;;;3.37;;
71947;SDS011;63257;55.082;38.772;2023-06-14T08:43:39;7.28;;;3.40;;
71947;SDS011;63257;55.082;38.772;2023-06-14T08:46:05;7.78;;;3.35;;
71947;SDS011;63257;55.082;38.772;2023-06-14T08:48:33;8.63;;;3.50;;
71947;SDS011;63257;55.082;38.772;2023-06-14T08:51:00;8.43;;;3.70;;
71947;SDS011;63257;55.082;38.772;2023-06-14T08:53:30;6.30;;;3.38;;
71947;SDS011;63257;55.082;38.772;2023-06-14T08:56:01;10.18;;;3.33;;
71947;SDS011;63257;55.082;38.772;2023-06-14T08:58:30;7.32;;;3.70;;
71947;SDS011;63257;55.082;38.772;2023-06-14T09:00:57;6.17;;;3.20;;
71947;SDS011;63257;55.082;38.772;2023-06-14T09:03:24;6.53;;;3.50;;
71947;SDS011;63257;55.082;38.772;2023-06-14T09:05:56;6.70;;;3.20;;
71947;SDS011;63257;55.082;38.772;2023-06-14T09:08:25;5.07;;;3.00;;
71947;SDS011;63257;55.082;38.772;2023-06-14T09:10:52;7.15;;;3.33;;
71947;SDS011;63257;55.082;38.772;2023-06-14T09:13:18;5.73;;;3.27;;
71947;SDS011;63257;55.082;38.772;2023-06-14T09:15:44;6.95;;;3.92;;
71947;SDS011;63257;55.082;38.772;2023-06-14T09:18:10;8.20;;;4.00;;
71947;SDS011;63257;55.082;38.772;2023-06-14T09:20:36;6.50;;;3.65;;
71947;SDS011;63257;55.082;38.772;2023-06-14T09:23:02;5.63;;;3.55;;
71947;SDS011;63257;55.082;38.772;2023-06-14T09:25:30;8.73;;;3.53;;
71947;SDS011;63257;55.082;38.772;2023-06-14T09:27:56;5.50;;;3.40;;
71947;SDS011;63257;55.082;38.772;2023-06-14T09:30:22;7.72;;;3.50;;
71947;SDS011;63257;55.082;38.772;2023-06-14T09:32:48;6.90;;;3.42;;
71947;SDS011;63257;55.082;38.772;2023-06-14T09:35:14;7.33;;;3.43;;
71947;SDS011;63257;55.082;38.772;2023-06-14T09:37:45;6.63;;;3.10;;
71947;SDS011;63257;55.082;38.772;2023-06-14T09:40:22;5.95;;;3.35;;
71947;SDS011;63257;55.082;38.772;2023-06-14T09:42:47;6.07;;;3.35;;
71947;SDS011;63257;55.082;38.772;2023-06-14T09:45:17;7.57;;;3.30;;
71947;SDS011;63257;55.082;38.772;2023-06-14T09:47:49;7.20;;;3.60;;
71947;SDS011;63257;55.082;38.772;2023-06-14T09:50:15;7.90;;;3.83;;
71947;SDS011;63257;55.082;38.772;2023-06-14T09:52:50;6.30;;;3.25;;
71947;SDS011;63257;55.082;38.772;2023-06-14T09:55:18;5.43;;;3.67;;
71947;SDS011;63257;55.082;38.772;2023-06-14T09:57:45;5.53;;;3.33;;
71947;SDS011;63257;55.082;38.772;2023-06-14T10:00:15;7.13;;;3.30;;
71947;SDS011;63257;55.082;38.772;2023-06-14T10:02:46;8.55;;;3.60;;
71947;SDS011;63257;55.082;38.772;2023-06-14T10:05:19;8.60;;;3.70;;
71947;SDS011;63257;55.082;38.772;2023-06-14T10:07:53;7.78;;;3.30;;
71947;SDS011;63257;55.082;38.772;2023-06-14T10:10:32;8.33;;;4.20;;
71947;SDS011;63257;55.082;38.772;2023-06-14T10:12:59;6.63;;;3.70;;
71947;SDS011;63257;55.082;38.772;2023-06-14T10:15:44;5.25;;;3.35;;
71947;SDS011;63257;55.082;38.772;2023-06-14T10:18:22;7.93;;;4.35;;
71947;SDS011;63257;55.082;38.772;2023-06-14T10:23:59;6.10;;;3.73;;
71947;SDS011;63257;55.082;38.772;2023-06-14T10:26:29;6.18;;;3.70;;
71947;SDS011;63257;55.082;38.772;2023-06-14T10:29:15;6.13;;;3.38;;
71947;SDS011;63257;55.082;38.772;2023-06-14T10:34:11;6.07;;;3.60;;
71947;SDS011;63257;55.082;38.772;2023-06-14T10:36:46;6.22;;;3.75;;
71947;SDS011;63257;55.082;38.772;2023-06-14T10:39:32;5.70;;;3.00;;
71947;SDS011;63257;55.082;38.772;2023-06-14T10:42:03;7.28;;;3.90;;
71947;SDS011;63257;55.082;38.772;2023-06-14T10:44:32;7.43;;;3.50;;
71947;SDS011;63257;55.082;38.772;2023-06-14T10:47:24;6.90;;;3.30;;
71947;SDS011;63257;55.082;38.772;2023-06-14T10:49:58;6.80;;;3.38;;
71947;SDS011;63257;55.082;38.772;2023-06-14T10:52:38;10.50;;;3.80;;
71947;SDS011;63257;55.082;38.772;2023-06-14T10:55:06;8.65;;;4.10;;
71947;SDS011;63257;55.082;38.772;2023-06-14T10:57:41;6.65;;;3.90;;
71947;SDS011;63257;55.082;38.772;2023-06-14T11:00:11;7.03;;;3.87;;
71947;SDS011;63257;55.082;38.772;2023-06-14T11:11:13;5.53;;;3.85;;
71947;SDS011;63257;55.082;38.772;2023-06-14T11:13:41;6.53;;;3.83;;
71947;SDS011;63257;55.082;38.772;2023-06-14T11:16:10;6.80;;;3.90;;
71947;SDS011;63257;55.082;38.772;2023-06-14T11:18:40;6.72;;;4.00;;
71947;SDS011;63257;55.082;38.772;2023-06-14T11:21:06;7.65;;;4.70;;
71947;SDS011;63257;55.082;38.772;2023-06-14T11:23:37;9.98;;;4.78;;
71947;SDS011;63257;55.082;38.772;2023-06-14T11:26:03;7.03;;;4.80;;
71947;SDS011;63257;55.082;38.772;2023-06-14T11:28:39;7.43;;;4.78;;
71947;SDS011;63257;55.082;38.772;2023-06-14T11:31:06;6.60;;;4.75;;
71947;SDS011;63257;55.082;38.772;2023-06-14T11:33:32;12.93;;;5.00;;
71947;SDS011;63257;55.082;38.772;2023-06-14T11:36:01;7.30;;;4.30;;
71947;SDS011;63257;55.082;38.772;2023-06-14T11:38:29;6.77;;;4.30;;
71947;SDS011;63257;55.082;38.772;2023-06-14T11:40:58;7.07;;;4.20;;
71947;SDS011;63257;55.082;38.772;2023-06-14T11:43:25;7.45;;;4.53;;
71947;SDS011;63257;55.082;38.772;2023-06-14T11:45:52;6.82;;;4.65;;
71947;SDS011;63257;55.082;38.772;2023-06-14T11:48:18;6.53;;;4.50;;
71947;SDS011;63257;55.082;38.772;2023-06-14T11:50:49;6.97;;;4.60;;
71947;SDS011;63257;55.082;38.772;2023-06-14T11:53:15;7.80;;;4.78;;
71947;SDS011;63257;55.082;38.772;2023-06-14T11:55:42;6.13;;;4.75;;
71947;SDS011;63257;55.082;38.772;2023-06-14T11:58:10;9.35;;;5.15;;
71947;SDS011;63257;55.082;38.772;2023-06-14T12:00:36;6.75;;;5.00;;
71947;SDS011;63257;55.082;38.772;2023-06-14T12:03:02;9.10;;;4.80;;
71947;SDS011;63257;55.082;38.772;2023-06-14T12:05:29;6.90;;;4.40;;
71947;SDS011;63257;55.082;38.772;2023-06-14T12:08:02;9.65;;;4.55;;
71947;SDS011;63257;55.082;38.772;2023-06-14T12:10:31;9.93;;;4.93;;
71947;SDS011;63257;55.082;38.772;2023-06-14T12:13:05;5.75;;;4.40;;
71947;SDS011;63257;55.082;38.772;2023-06-14T12:15:31;6.78;;;4.70;;
71947;SDS011;63257;55.082;38.772;2023-06-14T12:17:57;5.97;;;4.45;;
71947;SDS011;63257;55.082;38.772;2023-06-14T12:20:28;5.97;;;4.60;;
71947;SDS011;63257;55.082;38.772;2023-06-14T12:22:56;6.15;;;4.68;;
71947;SDS011;63257;55.082;38.772;2023-06-14T12:27:53;7.35;;;4.45;;
71947;SDS011;63257;55.082;38.772;2023-06-14T12:30:20;5.90;;;4.57;;
71947;SDS011;63257;55.082;38.772;2023-06-14T12:32:46;6.90;;;4.60;;
71947;SDS011;63257;55.082;38.772;2023-06-14T12:35:11;5.78;;;4.30;;
71947;SDS011;63257;55.082;38.772;2023-06-14T12:37:37;6.97;;;4.50;;
71947;SDS011;63257;55.082;38.772;2023-06-14T12:40:03;8.52;;;4.65;;
71947;SDS011;63257;55.082;38.772;2023-06-14T12:42:31;6.85;;;4.35;;
71947;SDS011;63257;55.082;38.772;2023-06-14T12:44:59;6.53;;;4.85;;
71947;SDS011;63257;55.082;38.772;2023-06-14T12:47:26;5.80;;;4.53;;
71947;SDS011;63257;55.082;38.772;2023-06-14T12:49:52;7.90;;;4.97;;
71947;SDS011;63257;55.082;38.772;2023-06-14T12:52:18;7.72;;;4.80;;
71947;SDS011;63257;55.082;38.772;2023-06-14T12:54:43;7.53;;;4.93;;
71947;SDS011;63257;55.082;38.772;2023-06-14T12:57:09;7.85;;;4.78;;
71947;SDS011;63257;55.082;38.772;2023-06-14T12:59:35;7.45;;;5.38;;
71947;SDS011;63257;55.082;38.772;2023-06-14T13:02:14;7.93;;;5.05;;
71947;SDS011;63257;55.082;38.772;2023-06-14T13:04:41;7.20;;;5.07;;
71947;SDS011;63257;55.082;38.772;2023-06-14T13:07:07;5.93;;;5.17;;
71947;SDS011;63257;55.082;38.772;2023-06-14T13:09:33;9.45;;;5.30;;
71947;SDS011;63257;55.082;38.772;2023-06-14T13:11:59;6.38;;;4.70;;
71947;SDS011;63257;55.082;38.772;2023-06-14T13:14:25;8.10;;;5.20;;
71947;SDS011;63257;55.082;38.772;2023-06-14T13:16:51;7.28;;;5.10;;
71947;SDS011;63257;55.082;38.772;2023-06-14T13:19:17;7.00;;;4.78;;
71947;SDS011;63257;55.082;38.772;2023-06-14T13:21:43;6.97;;;4.65;;
71947;SDS011;63257;55.082;38.772;2023-06-14T13:24:09;7.85;;;5.05;;
71947;SDS011;63257;55.082;38.772;2023-06-14T13:26:34;7.20;;;4.72;;
71947;SDS011;63257;55.082;38.772;2023-06-14T13:29:00;7.90;;;5.15;;
71947;SDS011;63257;55.082;38.772;2023-06-14T13:31:26;7.17;;;5.00;;
71947;SDS011;63257;55.082;38.772;2023-06-14T13:33:52;6.60;;;5.00;;
71947;SDS011;63257;55.082;38.772;2023-06-14T13:36:18;6.63;;;4.40;;
71947;SDS011;63257;55.082;38.772;2023-06-14T13:38:47;7.25;;;4.55;;
71947;SDS011;63257;55.082;38.772;2023-06-14T13:41:13;7.05;;;4.95;;
71947;SDS011;63257;55.082;38.772;2023-06-14T13:43:39;9.07;;;6.05;;
71947;SDS011;63257;55.082;38.772;2023-06-14T13:46:06;10.73;;;5.50;;
71947;SDS011;63257;55.082;38.772;2023-06-14T13:48:32;7.00;;;4.78;;
71947;SDS011;63257;55.082;38.772;2023-06-14T13:50:59;7.65;;;4.40;;
71947;SDS011;63257;55.082;38.772;2023-06-14T13:53:26;8.98;;;5.63;;
71947;SDS011;63257;55.082;38.772;2023-06-14T13:55:52;6.30;;;4.77;;
71947;SDS011;63257;55.082;38.772;2023-06-14T13:58:18;8.70;;;5.40;;
71947;SDS011;63257;55.082;38.772;2023-06-14T14:00:44;6.55;;;5.00;;
71947;SDS011;63257;55.082;38.772;2023-06-14T14:03:10;6.73;;;4.70;;
71947;SDS011;63257;55.082;38.772;2023-06-14T14:05:36;6.65;;;4.53;;
71947;SDS011;63257;55.082;38.772;2023-06-14T14:08:03;7.18;;;4.88;;
71947;SDS011;63257;55.082;38.772;2023-06-14T14:10:29;5.93;;;5.32;;
71947;SDS011;63257;55.082;38.772;2023-06-14T14:12:55;7.57;;;4.80;;
71947;SDS011;63257;55.082;38.772;2023-06-14T14:15:22;7.28;;;5.15;;
71947;SDS011;63257;55.082;38.772;2023-06-14T14:17:48;7.15;;;4.28;;
71947;SDS011;63257;55.082;38.772;2023-06-14T14:20:14;6.60;;;4.53;;
71947;SDS011;63257;55.082;38.772;2023-06-14T14:22:42;8.50;;;4.45;;
71947;SDS011;63257;55.082;38.772;2023-06-14T14:25:08;8.13;;;5.30;;
71947;SDS011;63257;55.082;38.772;2023-06-14T14:27:35;7.77;;;4.67;;
71947;SDS011;63257;55.082;38.772;2023-06-14T14:30:01;7.55;;;4.53;;
71947;SDS011;63257;55.082;38.772;2023-06-14T14:32:33;7.78;;;5.07;;
71947;SDS011;63257;55.082;38.772;2023-06-14T14:34:58;6.60;;;5.60;;
71947;SDS011;63257;55.082;38.772;2023-06-14T14:37:24;6.23;;;4.90;;
71947;SDS011;63257;55.082;38.772;2023-06-14T14:39:50;6.30;;;4.63;;
71947;SDS011;63257;55.082;38.772;2023-06-14T14:42:16;6.93;;;4.27;;
71947;SDS011;63257;55.082;38.772;2023-06-14T14:44:42;7.38;;;3.88;;
71947;SDS011;63257;55.082;38.772;2023-06-14T14:47:09;9.07;;;5.60;;
71947;SDS011;63257;55.082;38.772;2023-06-14T14:49:36;9.65;;;5.20;;
71947;SDS011;63257;55.082;38.772;2023-06-14T14:52:02;8.03;;;5.10;;
71947;SDS011;63257;55.082;38.772;2023-06-14T14:54:28;7.93;;;4.57;;
71947;SDS011;63257;55.082;38.772;2023-06-14T14:56:54;8.85;;;4.65;;
71947;SDS011;63257;55.082;38.772;2023-06-14T14:59:20;6.75;;;4.80;;